sensor_id;sensor_type;location;lat;lon;timestamp;temperature;humidity
3037;DHT22;1528;52.550;13.408;2023-06-24T00:01:33;18.80;60.40
3037;DHT22;1528;52.550;13.408;2023-06-24T00:04:18;19.00;60.00
3037;DHT22;1528;52.550;13.408;2023-06-24T00:07:06;18.90;60.30
3037;DHT22;1528;52.550;13.408;2023-06-24T00:09:51;18.90;60.50
3037;DHT22;1528;52.550;13.408;2023-06-24T00:12:37;19.00;60.10
3037;DHT22;1528;52.550;13.408;2023-06-24T00:15:23;19.00;60.40
3037;DHT22;1528;52.550;13.408;2023-06-24T00:18:08;19.00;60.40
3037;DHT22;1528;52.550;13.408;2023-06-24T00:20:54;19.00;61.00
3037;DHT22;1528;52.550;13.408;2023-06-24T00:23:41;19.00;61.10
3037;DHT22;1528;52.550;13.408;2023-06-24T00:26:27;19.00;61.10
3037;DHT22;1528;52.550;13.408;2023-06-24T00:29:13;19.00;61.30
3037;DHT22;1528;52.550;13.408;2023-06-24T00:31:59;18.90;61.50
3037;DHT22;1528;52.550;13.408;2023-06-24T00:34:44;19.00;61.40
3037;DHT22;1528;52.550;13.408;2023-06-24T00:37:31;18.90;61.50
3037;DHT22;1528;52.550;13.408;2023-06-24T00:40:18;18.80;62.00
3037;DHT22;1528;52.550;13.408;2023-06-24T00:43:05;18.80;62.10
3037;DHT22;1528;52.550;13.408;2023-06-24T00:45:52;18.70;62.50
3037;DHT22;1528;52.550;13.408;2023-06-24T00:48:40;18.60;62.80
3037;DHT22;1528;52.550;13.408;2023-06-24T00:51:25;18.70;62.70
3037;DHT22;1528;52.550;13.408;2023-06-24T00:54:14;18.60;62.80
3037;DHT22;1528;52.550;13.408;2023-06-24T00:57:01;18.60;62.80
3037;DHT22;1528;52.550;13.408;2023-06-24T00:59:47;18.60;62.60
3037;DHT22;1528;52.550;13.408;2023-06-24T01:02:34;18.50;63.10
3037;DHT22;1528;52.550;13.408;2023-06-24T01:05:21;18.50;63.00
3037;DHT22;1528;52.550;13.408;2023-06-24T01:08:08;18.30;63.00
3037;DHT22;1528;52.550;13.408;2023-06-24T01:10:53;18.30;63.40
3037;DHT22;1528;52.550;13.408;2023-06-24T01:13:41;18.20;63.50
3037;DHT22;1528;52.550;13.408;2023-06-24T01:16:32;18.30;63.20
3037;DHT22;1528;52.550;13.408;2023-06-24T01:19:33;18.30;63.10
3037;DHT22;1528;52.550;13.408;2023-06-24T01:22:44;18.20;62.80
3037;DHT22;1528;52.550;13.408;2023-06-24T01:25:47;18.30;62.70
3037;DHT22;1528;52.550;13.408;2023-06-24T01:29:15;18.20;62.60
3037;DHT22;1528;52.550;13.408;2023-06-24T01:32:10;17.90;62.30
3037;DHT22;1528;52.550;13.408;2023-06-24T01:34:59;18.20;62.30
3037;DHT22;1528;52.550;13.408;2023-06-24T01:37:47;18.10;62.30
3037;DHT22;1528;52.550;13.408;2023-06-24T01:40:38;18.20;61.80
3037;DHT22;1528;52.550;13.408;2023-06-24T01:43:26;18.20;61.30
3037;DHT22;1528;52.550;13.408;2023-06-24T01:46:12;18.20;61.40
3037;DHT22;1528;52.550;13.408;2023-06-24T01:49:02;18.10;61.30
3037;DHT22;1528;52.550;13.408;2023-06-24T01:51:50;18.00;61.90
3037;DHT22;1528;52.550;13.408;2023-06-24T01:54:36;18.00;61.70
3037;DHT22;1528;52.550;13.408;2023-06-24T01:57:24;18.10;61.20
3037;DHT22;1528;52.550;13.408;2023-06-24T02:00:11;18.10;61.10
3037;DHT22;1528;52.550;13.408;2023-06-24T02:02:58;18.10;60.80
3037;DHT22;1528;52.550;13.408;2023-06-24T02:05:46;18.10;60.60
3037;DHT22;1528;52.550;13.408;2023-06-24T02:08:34;18.00;60.80
3037;DHT22;1528;52.550;13.408;2023-06-24T02:11:21;18.10;60.20
3037;DHT22;1528;52.550;13.408;2023-06-24T02:14:10;18.00;60.00
3037;DHT22;1528;52.550;13.408;2023-06-24T02:16:57;18.00;59.80
3037;DHT22;1528;52.550;13.408;2023-06-24T02:19:44;18.00;59.80
3037;DHT22;1528;52.550;13.408;2023-06-24T02:22:31;17.80;60.00
3037;DHT22;1528;52.550;13.408;2023-06-24T02:25:17;17.80;60.00
3037;DHT22;1528;52.550;13.408;2023-06-24T02:28:03;17.80;59.70
3037;DHT22;1528;52.550;13.408;2023-06-24T02:30:49;17.70;59.70
3037;DHT22;1528;52.550;13.408;2023-06-24T02:33:35;17.60;60.00
3037;DHT22;1528;52.550;13.408;2023-06-24T02:36:21;17.70;60.10
3037;DHT22;1528;52.550;13.408;2023-06-24T02:39:08;17.60;60.10
3037;DHT22;1528;52.550;13.408;2023-06-24T02:41:53;17.30;61.00
3037;DHT22;1528;52.550;13.408;2023-06-24T02:44:39;17.50;60.00
3037;DHT22;1528;52.550;13.408;2023-06-24T02:47:26;17.60;59.80
3037;DHT22;1528;52.550;13.408;2023-06-24T02:50:12;17.50;59.10
3037;DHT22;1528;52.550;13.408;2023-06-24T02:52:57;17.50;59.30
3037;DHT22;1528;52.550;13.408;2023-06-24T02:55:45;17.70;59.40
3037;DHT22;1528;52.550;13.408;2023-06-24T02:58:31;17.60;59.10
3037;DHT22;1528;52.550;13.408;2023-06-24T03:01:18;17.50;59.00
3037;DHT22;1528;52.550;13.408;2023-06-24T03:04:08;17.50;58.30
3037;DHT22;1528;52.550;13.408;2023-06-24T03:06:54;17.50;58.70
3037;DHT22;1528;52.550;13.408;2023-06-24T03:09:41;17.60;58.40
3037;DHT22;1528;52.550;13.408;2023-06-24T03:12:27;17.60;58.40
3037;DHT22;1528;52.550;13.408;2023-06-24T03:15:13;17.60;57.70
3037;DHT22;1528;52.550;13.408;2023-06-24T03:17:58;17.60;57.60
3037;DHT22;1528;52.550;13.408;2023-06-24T03:20:44;17.60;57.60
3037;DHT22;1528;52.550;13.408;2023-06-24T03:23:31;17.60;57.80
3037;DHT22;1528;52.550;13.408;2023-06-24T03:26:16;17.60;57.40
3037;DHT22;1528;52.550;13.408;2023-06-24T03:29:03;17.70;57.30
3037;DHT22;1528;52.550;13.408;2023-06-24T03:31:49;17.60;57.20
3037;DHT22;1528;52.550;13.408;2023-06-24T03:34:35;17.50;57.20
3037;DHT22;1528;52.550;13.408;2023-06-24T03:37:21;17.60;57.50
3037;DHT22;1528;52.550;13.408;2023-06-24T03:40:07;17.60;57.10
3037;DHT22;1528;52.550;13.408;2023-06-24T03:42:53;17.50;57.40
3037;DHT22;1528;52.550;13.408;2023-06-24T03:45:40;17.40;57.50
3037;DHT22;1528;52.550;13.408;2023-06-24T03:48:25;17.50;56.90
3037;DHT22;1528;52.550;13.408;2023-06-24T03:51:10;17.60;56.60
3037;DHT22;1528;52.550;13.408;2023-06-24T03:53:56;17.40;56.90
3037;DHT22;1528;52.550;13.408;2023-06-24T03:56:42;17.40;57.90
3037;DHT22;1528;52.550;13.408;2023-06-24T03:59:27;17.40;57.00
3037;DHT22;1528;52.550;13.408;2023-06-24T04:02:14;17.40;57.20
3037;DHT22;1528;52.550;13.408;2023-06-24T04:05:01;17.50;57.00
3037;DHT22;1528;52.550;13.408;2023-06-24T04:07:47;17.60;56.50
3037;DHT22;1528;52.550;13.408;2023-06-24T04:10:35;17.50;56.80
3037;DHT22;1528;52.550;13.408;2023-06-24T04:13:21;17.60;56.80
3037;DHT22;1528;52.550;13.408;2023-06-24T04:16:06;17.40;56.90
3037;DHT22;1528;52.550;13.408;2023-06-24T04:18:53;17.40;56.70
3037;DHT22;1528;52.550;13.408;2023-06-24T04:21:39;17.50;56.70
3037;DHT22;1528;52.550;13.408;2023-06-24T04:24:25;17.40;56.90
3037;DHT22;1528;52.550;13.408;2023-06-24T04:27:10;17.30;56.90
3037;DHT22;1528;52.550;13.408;2023-06-24T04:29:56;17.30;57.00
3037;DHT22;1528;52.550;13.408;2023-06-24T04:32:41;17.20;57.40
3037;DHT22;1528;52.550;13.408;2023-06-24T04:35:29;17.20;57.30
3037;DHT22;1528;52.550;13.408;2023-06-24T04:38:15;17.20;56.70
3037;DHT22;1528;52.550;13.408;2023-06-24T04:41:02;17.20;57.00
3037;DHT22;1528;52.550;13.408;2023-06-24T04:43:48;17.20;56.20
3037;DHT22;1528;52.550;13.408;2023-06-24T04:46:34;17.20;56.90
3037;DHT22;1528;52.550;13.408;2023-06-24T04:49:20;17.20;56.90
3037;DHT22;1528;52.550;13.408;2023-06-24T04:52:07;17.20;56.90
3037;DHT22;1528;52.550;13.408;2023-06-24T04:54:53;17.30;56.70
3037;DHT22;1528;52.550;13.408;2023-06-24T04:57:38;17.40;56.40
3037;DHT22;1528;52.550;13.408;2023-06-24T05:00:26;17.30;56.90
3037;DHT22;1528;52.550;13.408;2023-06-24T05:03:12;17.50;56.60
3037;DHT22;1528;52.550;13.408;2023-06-24T05:05:59;17.50;56.40
3037;DHT22;1528;52.550;13.408;2023-06-24T05:08:46;17.60;55.20
3037;DHT22;1528;52.550;13.408;2023-06-24T05:11:31;17.70;54.80
3037;DHT22;1528;52.550;13.408;2023-06-24T05:14:17;17.50;55.40
3037;DHT22;1528;52.550;13.408;2023-06-24T05:17:03;17.70;54.90
3037;DHT22;1528;52.550;13.408;2023-06-24T05:19:49;17.60;54.80
3037;DHT22;1528;52.550;13.408;2023-06-24T05:22:35;17.60;55.00
3037;DHT22;1528;52.550;13.408;2023-06-24T05:25:22;17.50;54.90
3037;DHT22;1528;52.550;13.408;2023-06-24T05:28:07;17.70;55.20
3037;DHT22;1528;52.550;13.408;2023-06-24T05:30:54;17.70;54.60
3037;DHT22;1528;52.550;13.408;2023-06-24T05:33:39;17.70;54.70
3037;DHT22;1528;52.550;13.408;2023-06-24T05:36:25;17.70;54.90
3037;DHT22;1528;52.550;13.408;2023-06-24T05:39:11;17.60;55.00
3037;DHT22;1528;52.550;13.408;2023-06-24T05:41:58;17.80;54.00
3037;DHT22;1528;52.550;13.408;2023-06-24T05:44:44;17.90;54.00
3037;DHT22;1528;52.550;13.408;2023-06-24T05:47:30;17.90;54.20
3037;DHT22;1528;52.550;13.408;2023-06-24T05:50:16;18.00;53.70
3037;DHT22;1528;52.550;13.408;2023-06-24T05:53:01;18.10;53.50
3037;DHT22;1528;52.550;13.408;2023-06-24T05:55:47;18.20;53.00
3037;DHT22;1528;52.550;13.408;2023-06-24T05:58:34;18.20;53.50
3037;DHT22;1528;52.550;13.408;2023-06-24T06:01:19;18.50;52.90
3037;DHT22;1528;52.550;13.408;2023-06-24T06:04:05;18.80;52.50
3037;DHT22;1528;52.550;13.408;2023-06-24T06:06:51;18.90;51.60
3037;DHT22;1528;52.550;13.408;2023-06-24T06:09:37;18.60;51.00
3037;DHT22;1528;52.550;13.408;2023-06-24T06:12:22;18.60;51.30
3037;DHT22;1528;52.550;13.408;2023-06-24T06:15:10;18.60;51.70
3037;DHT22;1528;52.550;13.408;2023-06-24T06:17:56;18.60;52.10
3037;DHT22;1528;52.550;13.408;2023-06-24T06:20:41;18.60;51.90
3037;DHT22;1528;52.550;13.408;2023-06-24T06:23:27;18.70;51.00
3037;DHT22;1528;52.550;13.408;2023-06-24T06:26:13;18.60;51.90
3037;DHT22;1528;52.550;13.408;2023-06-24T06:28:58;18.70;52.00
3037;DHT22;1528;52.550;13.408;2023-06-24T06:31:45;18.90;51.90
3037;DHT22;1528;52.550;13.408;2023-06-24T06:34:31;19.00;50.80
3037;DHT22;1528;52.550;13.408;2023-06-24T06:37:17;19.00;50.80
3037;DHT22;1528;52.550;13.408;2023-06-24T06:40:03;19.30;50.90
3037;DHT22;1528;52.550;13.408;2023-06-24T06:42:49;19.40;50.50
3037;DHT22;1528;52.550;13.408;2023-06-24T06:45:35;19.40;49.60
3037;DHT22;1528;52.550;13.408;2023-06-24T06:48:22;19.40;49.90
3037;DHT22;1528;52.550;13.408;2023-06-24T06:51:07;19.40;49.50
3037;DHT22;1528;52.550;13.408;2023-06-24T06:53:53;19.60;49.90
3037;DHT22;1528;52.550;13.408;2023-06-24T06:56:39;19.70;49.20
3037;DHT22;1528;52.550;13.408;2023-06-24T06:59:24;19.70;48.10
3037;DHT22;1528;52.550;13.408;2023-06-24T07:02:10;19.60;48.40
3037;DHT22;1528;52.550;13.408;2023-06-24T07:04:57;19.60;48.50
3037;DHT22;1528;52.550;13.408;2023-06-24T07:07:43;19.50;48.80
3037;DHT22;1528;52.550;13.408;2023-06-24T07:10:29;19.50;48.70
3037;DHT22;1528;52.550;13.408;2023-06-24T07:13:15;19.50;48.20
3037;DHT22;1528;52.550;13.408;2023-06-24T07:16:01;19.70;48.70
3037;DHT22;1528;52.550;13.408;2023-06-24T07:18:46;19.50;47.80
3037;DHT22;1528;52.550;13.408;2023-06-24T07:21:33;19.50;48.20
3037;DHT22;1528;52.550;13.408;2023-06-24T07:24:19;19.60;47.60
3037;DHT22;1528;52.550;13.408;2023-06-24T07:27:05;19.90;46.70
3037;DHT22;1528;52.550;13.408;2023-06-24T07:29:51;20.10;46.00
3037;DHT22;1528;52.550;13.408;2023-06-24T07:32:37;20.50;43.70
3037;DHT22;1528;52.550;13.408;2023-06-24T07:35:23;20.50;42.90
3037;DHT22;1528;52.550;13.408;2023-06-24T07:38:10;20.20;44.10
3037;DHT22;1528;52.550;13.408;2023-06-24T07:40:58;19.80;43.80
3037;DHT22;1528;52.550;13.408;2023-06-24T07:43:44;19.90;44.30
3037;DHT22;1528;52.550;13.408;2023-06-24T07:46:30;20.10;43.90
3037;DHT22;1528;52.550;13.408;2023-06-24T07:49:15;20.30;43.60
3037;DHT22;1528;52.550;13.408;2023-06-24T07:52:01;20.40;42.40
3037;DHT22;1528;52.550;13.408;2023-06-24T07:54:48;20.40;42.00
3037;DHT22;1528;52.550;13.408;2023-06-24T07:57:34;20.50;40.90
3037;DHT22;1528;52.550;13.408;2023-06-24T08:00:20;20.30;40.90
3037;DHT22;1528;52.550;13.408;2023-06-24T08:03:05;20.40;39.50
3037;DHT22;1528;52.550;13.408;2023-06-24T08:05:51;20.50;39.80
3037;DHT22;1528;52.550;13.408;2023-06-24T08:08:37;20.40;39.40
3037;DHT22;1528;52.550;13.408;2023-06-24T08:11:23;20.50;38.50
3037;DHT22;1528;52.550;13.408;2023-06-24T08:14:09;20.60;38.40
3037;DHT22;1528;52.550;13.408;2023-06-24T08:16:54;20.70;36.90
3037;DHT22;1528;52.550;13.408;2023-06-24T08:19:40;20.80;37.30
3037;DHT22;1528;52.550;13.408;2023-06-24T08:22:26;20.70;36.00
3037;DHT22;1528;52.550;13.408;2023-06-24T08:25:11;20.80;35.80
3037;DHT22;1528;52.550;13.408;2023-06-24T08:28:17;20.80;36.20
3037;DHT22;1528;52.550;13.408;2023-06-24T08:31:20;21.10;36.30
3037;DHT22;1528;52.550;13.408;2023-06-24T08:34:24;21.20;34.90
3037;DHT22;1528;52.550;13.408;2023-06-24T08:37:09;21.00;35.60
3037;DHT22;1528;52.550;13.408;2023-06-24T08:39:55;20.90;34.90
3037;DHT22;1528;52.550;13.408;2023-06-24T08:42:42;21.10;33.80
3037;DHT22;1528;52.550;13.408;2023-06-24T08:45:29;21.10;33.80
3037;DHT22;1528;52.550;13.408;2023-06-24T08:48:15;21.20;34.30
3037;DHT22;1528;52.550;13.408;2023-06-24T08:51:02;21.20;33.40
3037;DHT22;1528;52.550;13.408;2023-06-24T08:53:48;21.30;31.70
3037;DHT22;1528;52.550;13.408;2023-06-24T08:56:34;21.10;31.80
3037;DHT22;1528;52.550;13.408;2023-06-24T08:59:22;21.30;31.30
3037;DHT22;1528;52.550;13.408;2023-06-24T09:02:09;21.30;30.30
3037;DHT22;1528;52.550;13.408;2023-06-24T09:04:56;21.30;29.60
3037;DHT22;1528;52.550;13.408;2023-06-24T09:07:41;21.60;29.70
3037;DHT22;1528;52.550;13.408;2023-06-24T09:10:31;21.90;30.00
3037;DHT22;1528;52.550;13.408;2023-06-24T09:13:17;21.60;30.00
3037;DHT22;1528;52.550;13.408;2023-06-24T09:16:13;21.30;31.00
3037;DHT22;1528;52.550;13.408;2023-06-24T09:19:01;21.50;30.20
3037;DHT22;1528;52.550;13.408;2023-06-24T09:21:46;21.50;29.30
3037;DHT22;1528;52.550;13.408;2023-06-24T09:24:32;21.80;30.10
3037;DHT22;1528;52.550;13.408;2023-06-24T09:27:18;22.10;29.30
3037;DHT22;1528;52.550;13.408;2023-06-24T09:30:17;21.90;28.90
3037;DHT22;1528;52.550;13.408;2023-06-24T09:33:04;21.90;29.30
3037;DHT22;1528;52.550;13.408;2023-06-24T09:35:51;22.10;29.10
3037;DHT22;1528;52.550;13.408;2023-06-24T09:38:38;22.00;27.90
3037;DHT22;1528;52.550;13.408;2023-06-24T09:41:25;21.70;27.70
3037;DHT22;1528;52.550;13.408;2023-06-24T09:44:12;21.70;28.20
3037;DHT22;1528;52.550;13.408;2023-06-24T09:46:58;21.60;28.00
3037;DHT22;1528;52.550;13.408;2023-06-24T09:49:43;21.60;28.10
3037;DHT22;1528;52.550;13.408;2023-06-24T09:52:31;21.80;28.60
3037;DHT22;1528;52.550;13.408;2023-06-24T09:55:19;22.00;28.40
3037;DHT22;1528;52.550;13.408;2023-06-24T09:58:05;22.10;26.60
3037;DHT22;1528;52.550;13.408;2023-06-24T10:00:51;22.00;26.30
3037;DHT22;1528;52.550;13.408;2023-06-24T10:03:38;22.00;26.10
3037;DHT22;1528;52.550;13.408;2023-06-24T10:06:24;22.10;25.70
3037;DHT22;1528;52.550;13.408;2023-06-24T10:09:12;22.20;25.50
3037;DHT22;1528;52.550;13.408;2023-06-24T10:12:01;22.30;25.90
3037;DHT22;1528;52.550;13.408;2023-06-24T10:14:47;22.20;25.00
3037;DHT22;1528;52.550;13.408;2023-06-24T10:17:32;22.30;25.20
3037;DHT22;1528;52.550;13.408;2023-06-24T10:20:24;22.50;24.50
3037;DHT22;1528;52.550;13.408;2023-06-24T10:23:10;22.60;24.50
3037;DHT22;1528;52.550;13.408;2023-06-24T10:25:57;22.80;24.80
3037;DHT22;1528;52.550;13.408;2023-06-24T10:29:16;22.70;24.50
3037;DHT22;1528;52.550;13.408;2023-06-24T10:32:06;22.70;24.80
3037;DHT22;1528;52.550;13.408;2023-06-24T10:34:55;22.70;25.00
3037;DHT22;1528;52.550;13.408;2023-06-24T10:40:11;22.80;24.10
3037;DHT22;1528;52.550;13.408;2023-06-24T10:43:00;22.80;24.80
3037;DHT22;1528;52.550;13.408;2023-06-24T10:45:49;22.90;25.10
3037;DHT22;1528;52.550;13.408;2023-06-24T10:48:35;23.10;24.70
3037;DHT22;1528;52.550;13.408;2023-06-24T10:51:20;23.10;24.70
3037;DHT22;1528;52.550;13.408;2023-06-24T10:54:06;23.20;24.40
3037;DHT22;1528;52.550;13.408;2023-06-24T10:56:53;23.30;24.40
3037;DHT22;1528;52.550;13.408;2023-06-24T10:59:41;23.70;23.30
3037;DHT22;1528;52.550;13.408;2023-06-24T11:02:27;24.00;23.00
3037;DHT22;1528;52.550;13.408;2023-06-24T11:05:13;24.10;23.20
3037;DHT22;1528;52.550;13.408;2023-06-24T11:07:58;24.30;22.80
3037;DHT22;1528;52.550;13.408;2023-06-24T11:10:46;24.40;22.10
3037;DHT22;1528;52.550;13.408;2023-06-24T11:13:33;24.30;21.80
3037;DHT22;1528;52.550;13.408;2023-06-24T11:16:22;24.40;22.10
3037;DHT22;1528;52.550;13.408;2023-06-24T11:19:18;24.50;21.90
3037;DHT22;1528;52.550;13.408;2023-06-24T11:22:04;24.40;21.40
3037;DHT22;1528;52.550;13.408;2023-06-24T11:24:50;24.30;21.30
3037;DHT22;1528;52.550;13.408;2023-06-24T11:27:36;24.60;21.00
3037;DHT22;1528;52.550;13.408;2023-06-24T11:30:21;25.40;20.30
3037;DHT22;1528;52.550;13.408;2023-06-24T11:33:08;26.20;18.90
3037;DHT22;1528;52.550;13.408;2023-06-24T11:35:54;26.90;17.20
3037;DHT22;1528;52.550;13.408;2023-06-24T11:38:39;27.50;16.30
3037;DHT22;1528;52.550;13.408;2023-06-24T11:41:25;26.90;15.10
3037;DHT22;1528;52.550;13.408;2023-06-24T11:44:11;26.70;15.30
3037;DHT22;1528;52.550;13.408;2023-06-24T11:47:04;26.40;16.00
3037;DHT22;1528;52.550;13.408;2023-06-24T11:49:52;26.20;15.60
3037;DHT22;1528;52.550;13.408;2023-06-24T11:52:39;26.50;15.80
3037;DHT22;1528;52.550;13.408;2023-06-24T11:55:26;26.90;15.20
3037;DHT22;1528;52.550;13.408;2023-06-24T11:58:19;27.80;14.30
3037;DHT22;1528;52.550;13.408;2023-06-24T12:01:06;28.80;12.40
3037;DHT22;1528;52.550;13.408;2023-06-24T12:03:52;32.30;6.80
3037;DHT22;1528;52.550;13.408;2023-06-24T12:06:39;35.60;3.40
3037;DHT22;1528;52.550;13.408;2023-06-24T12:09:25;38.80;1.00
3037;DHT22;1528;52.550;13.408;2023-06-24T12:12:11;41.10;1.00
3037;DHT22;1528;52.550;13.408;2023-06-24T12:14:57;41.20;1.00
3037;DHT22;1528;52.550;13.408;2023-06-24T12:17:43;41.70;1.00
3037;DHT22;1528;52.550;13.408;2023-06-24T12:20:29;44.10;1.00
3037;DHT22;1528;52.550;13.408;2023-06-24T12:23:16;45.40;1.00
3037;DHT22;1528;52.550;13.408;2023-06-24T12:26:01;45.60;1.00
3037;DHT22;1528;52.550;13.408;2023-06-24T12:28:56;44.80;1.00
3037;DHT22;1528;52.550;13.408;2023-06-24T12:31:41;46.70;1.00
3037;DHT22;1528;52.550;13.408;2023-06-24T12:34:27;48.80;1.00
3037;DHT22;1528;52.550;13.408;2023-06-24T12:37:13;50.70;1.00
3037;DHT22;1528;52.550;13.408;2023-06-24T12:40:00;51.90;1.00
3037;DHT22;1528;52.550;13.408;2023-06-24T12:42:46;50.70;1.00
3037;DHT22;1528;52.550;13.408;2023-06-24T12:45:31;50.90;1.00
3037;DHT22;1528;52.550;13.408;2023-06-24T12:48:17;51.60;1.00
3037;DHT22;1528;52.550;13.408;2023-06-24T12:51:03;51.30;1.00
3037;DHT22;1528;52.550;13.408;2023-06-24T12:53:48;52.70;1.00
3037;DHT22;1528;52.550;13.408;2023-06-24T12:56:35;52.10;1.00
3037;DHT22;1528;52.550;13.408;2023-06-24T12:59:21;53.60;1.00
3037;DHT22;1528;52.550;13.408;2023-06-24T13:02:07;54.10;1.00
3037;DHT22;1528;52.550;13.408;2023-06-24T13:04:52;54.50;1.00
3037;DHT22;1528;52.550;13.408;2023-06-24T13:07:38;54.10;1.00
3037;DHT22;1528;52.550;13.408;2023-06-24T13:10:23;54.90;1.00
3037;DHT22;1528;52.550;13.408;2023-06-24T13:13:10;53.80;1.00
3037;DHT22;1528;52.550;13.408;2023-06-24T13:15:56;52.80;1.00
3037;DHT22;1528;52.550;13.408;2023-06-24T13:18:42;53.80;1.00
3037;DHT22;1528;52.550;13.408;2023-06-24T13:21:27;54.20;1.00
3037;DHT22;1528;52.550;13.408;2023-06-24T13:24:13;53.30;1.00
3037;DHT22;1528;52.550;13.408;2023-06-24T13:26:58;52.60;1.00
3037;DHT22;1528;52.550;13.408;2023-06-24T13:29:45;53.80;1.00
3037;DHT22;1528;52.550;13.408;2023-06-24T13:32:30;55.10;1.00
3037;DHT22;1528;52.550;13.408;2023-06-24T13:35:16;54.90;1.00
3037;DHT22;1528;52.550;13.408;2023-06-24T13:38:01;55.90;1.00
3037;DHT22;1528;52.550;13.408;2023-06-24T13:40:47;56.80;1.00
3037;DHT22;1528;52.550;13.408;2023-06-24T13:43:33;57.40;1.00
3037;DHT22;1528;52.550;13.408;2023-06-24T13:46:20;56.50;1.00
3037;DHT22;1528;52.550;13.408;2023-06-24T13:49:07;54.60;1.00
3037;DHT22;1528;52.550;13.408;2023-06-24T13:51:52;55.80;1.00
3037;DHT22;1528;52.550;13.408;2023-06-24T13:54:38;56.40;1.00
3037;DHT22;1528;52.550;13.408;2023-06-24T13:57:25;57.50;1.00
3037;DHT22;1528;52.550;13.408;2023-06-24T14:00:12;55.40;1.00
3037;DHT22;1528;52.550;13.408;2023-06-24T14:02:59;56.90;1.00
3037;DHT22;1528;52.550;13.408;2023-06-24T14:05:45;58.00;1.00
3037;DHT22;1528;52.550;13.408;2023-06-24T14:08:32;58.60;1.00
3037;DHT22;1528;52.550;13.408;2023-06-24T14:11:18;56.90;1.00
3037;DHT22;1528;52.550;13.408;2023-06-24T14:14:03;57.10;1.00
3037;DHT22;1528;52.550;13.408;2023-06-24T14:16:49;56.60;1.00
3037;DHT22;1528;52.550;13.408;2023-06-24T14:19:36;56.20;1.00
3037;DHT22;1528;52.550;13.408;2023-06-24T14:22:22;54.90;1.00
3037;DHT22;1528;52.550;13.408;2023-06-24T14:25:08;54.80;1.00
3037;DHT22;1528;52.550;13.408;2023-06-24T14:27:53;55.10;1.00
3037;DHT22;1528;52.550;13.408;2023-06-24T14:30:39;52.90;1.00
3037;DHT22;1528;52.550;13.408;2023-06-24T14:33:25;53.40;1.00
3037;DHT22;1528;52.550;13.408;2023-06-24T14:36:12;53.90;1.00
3037;DHT22;1528;52.550;13.408;2023-06-24T14:38:58;55.50;1.00
3037;DHT22;1528;52.550;13.408;2023-06-24T14:41:43;55.70;1.00
3037;DHT22;1528;52.550;13.408;2023-06-24T14:44:29;55.40;1.00
3037;DHT22;1528;52.550;13.408;2023-06-24T14:47:14;54.20;1.00
3037;DHT22;1528;52.550;13.408;2023-06-24T14:50:01;53.80;1.00
3037;DHT22;1528;52.550;13.408;2023-06-24T14:52:48;49.50;1.00
3037;DHT22;1528;52.550;13.408;2023-06-24T14:55:33;46.10;1.00
3037;DHT22;1528;52.550;13.408;2023-06-24T14:58:19;43.30;1.00
3037;DHT22;1528;52.550;13.408;2023-06-24T15:01:05;41.70;1.00
3037;DHT22;1528;52.550;13.408;2023-06-24T15:03:50;39.20;1.00
3037;DHT22;1528;52.550;13.408;2023-06-24T15:06:36;38.20;1.00
3037;DHT22;1528;52.550;13.408;2023-06-24T15:09:23;37.10;1.00
3037;DHT22;1528;52.550;13.408;2023-06-24T15:12:09;36.40;1.00
3037;DHT22;1528;52.550;13.408;2023-06-24T15:14:55;35.60;1.00
3037;DHT22;1528;52.550;13.408;2023-06-24T15:17:41;35.20;1.00
3037;DHT22;1528;52.550;13.408;2023-06-24T15:20:29;35.40;1.00
3037;DHT22;1528;52.550;13.408;2023-06-24T15:23:14;34.80;1.00
3037;DHT22;1528;52.550;13.408;2023-06-24T15:26:01;34.50;1.00
3037;DHT22;1528;52.550;13.408;2023-06-24T15:28:47;34.10;1.00
3037;DHT22;1528;52.550;13.408;2023-06-24T15:31:33;34.20;1.00
3037;DHT22;1528;52.550;13.408;2023-06-24T15:34:18;34.00;1.00
3037;DHT22;1528;52.550;13.408;2023-06-24T15:37:05;33.60;1.00
3037;DHT22;1528;52.550;13.408;2023-06-24T15:39:50;33.90;1.00
3037;DHT22;1528;52.550;13.408;2023-06-24T15:42:37;33.50;1.00
3037;DHT22;1528;52.550;13.408;2023-06-24T15:45:23;33.60;1.00
3037;DHT22;1528;52.550;13.408;2023-06-24T15:48:08;33.50;1.00
3037;DHT22;1528;52.550;13.408;2023-06-24T15:50:54;33.30;1.00
3037;DHT22;1528;52.550;13.408;2023-06-24T15:53:41;33.30;1.00
3037;DHT22;1528;52.550;13.408;2023-06-24T15:56:26;32.90;1.00
3037;DHT22;1528;52.550;13.408;2023-06-24T15:59:13;32.60;1.00
3037;DHT22;1528;52.550;13.408;2023-06-24T16:01:59;32.10;1.00
3037;DHT22;1528;52.550;13.408;2023-06-24T16:04:44;31.50;1.00
3037;DHT22;1528;52.550;13.408;2023-06-24T16:07:30;31.00;1.00
3037;DHT22;1528;52.550;13.408;2023-06-24T16:10:16;30.90;1.00
3037;DHT22;1528;52.550;13.408;2023-06-24T16:13:01;30.60;1.00
3037;DHT22;1528;52.550;13.408;2023-06-24T16:15:48;30.60;1.00
3037;DHT22;1528;52.550;13.408;2023-06-24T16:18:34;31.00;1.00
3037;DHT22;1528;52.550;13.408;2023-06-24T16:21:19;31.20;1.00
3037;DHT22;1528;52.550;13.408;2023-06-24T16:24:05;31.40;1.00
3037;DHT22;1528;52.550;13.408;2023-06-24T16:26:50;31.10;1.00
3037;DHT22;1528;52.550;13.408;2023-06-24T16:29:36;30.90;1.00
3037;DHT22;1528;52.550;13.408;2023-06-24T16:32:23;30.80;1.00
3037;DHT22;1528;52.550;13.408;2023-06-24T16:35:09;30.30;1.00
3037;DHT22;1528;52.550;13.408;2023-06-24T16:37:54;30.20;1.00
3037;DHT22;1528;52.550;13.408;2023-06-24T16:40:40;29.90;1.00
3037;DHT22;1528;52.550;13.408;2023-06-24T16:43:25;30.00;1.00
3037;DHT22;1528;52.550;13.408;2023-06-24T16:46:11;29.80;1.00
3037;DHT22;1528;52.550;13.408;2023-06-24T16:48:58;29.90;1.00
3037;DHT22;1528;52.550;13.408;2023-06-24T16:51:47;29.60;1.00
3037;DHT22;1528;52.550;13.408;2023-06-24T16:54:33;29.50;1.00
3037;DHT22;1528;52.550;13.408;2023-06-24T16:57:18;29.40;1.20
3037;DHT22;1528;52.550;13.408;2023-06-24T17:00:05;29.20;1.40
3037;DHT22;1528;52.550;13.408;2023-06-24T17:02:51;29.10;2.00
3037;DHT22;1528;52.550;13.408;2023-06-24T17:05:38;29.10;1.70
3037;DHT22;1528;52.550;13.408;2023-06-24T17:08:23;29.10;1.50
3037;DHT22;1528;52.550;13.408;2023-06-24T17:11:09;29.00;1.10
3037;DHT22;1528;52.550;13.408;2023-06-24T17:13:55;29.00;1.20
3037;DHT22;1528;52.550;13.408;2023-06-24T17:16:40;28.90;1.20
3037;DHT22;1528;52.550;13.408;2023-06-24T17:19:26;28.70;2.30
3037;DHT22;1528;52.550;13.408;2023-06-24T17:22:13;28.70;2.20
3037;DHT22;1528;52.550;13.408;2023-06-24T17:24:58;28.70;2.00
3037;DHT22;1528;52.550;13.408;2023-06-24T17:27:44;28.70;1.20
3037;DHT22;1528;52.550;13.408;2023-06-24T17:30:29;28.40;1.90
3037;DHT22;1528;52.550;13.408;2023-06-24T17:33:15;28.10;2.30
3037;DHT22;1528;52.550;13.408;2023-06-24T17:36:01;28.00;3.30
3037;DHT22;1528;52.550;13.408;2023-06-24T17:38:48;27.90;3.70
3037;DHT22;1528;52.550;13.408;2023-06-24T17:41:33;27.80;4.10
3037;DHT22;1528;52.550;13.408;2023-06-24T17:44:19;27.70;4.60
3037;DHT22;1528;52.550;13.408;2023-06-24T17:47:05;27.60;4.80
3037;DHT22;1528;52.550;13.408;2023-06-24T17:49:50;27.60;4.30
3037;DHT22;1528;52.550;13.408;2023-06-24T17:52:36;27.30;4.80
3037;DHT22;1528;52.550;13.408;2023-06-24T17:55:23;27.10;5.80
3037;DHT22;1528;52.550;13.408;2023-06-24T17:58:10;27.10;6.60
3037;DHT22;1528;52.550;13.408;2023-06-24T18:00:56;27.00;5.60